sensor_id;sensor_type;location;lat;lon;timestamp;P1;durP1;ratioP1;P2;durP2;ratioP2
4744;SDS011;2386;42.138;24.746;2024-01-06T00:01:59;47.90;;;26.30;;
4744;SDS011;2386;42.138;24.746;2024-01-06T00:04:25;58.30;;;32.73;;
4744;SDS011;2386;42.138;24.746;2024-01-06T00:06:50;84.67;;;42.87;;
4744;SDS011;2386;42.138;24.746;2024-01-06T00:09:15;85.63;;;48.57;;
4744;SDS011;2386;42.138;24.746;2024-01-06T00:11:41;99.03;;;54.93;;
4744;SDS011;2386;42.138;24.746;2024-01-06T00:14:06;117.10;;;62.80;;
4744;SDS011;2386;42.138;24.746;2024-01-06T00:16:31;116.40;;;64.63;;
4744;SDS011;2386;42.138;24.746;2024-01-06T00:18:57;138.93;;;70.20;;
4744;SDS011;2386;42.138;24.746;2024-01-06T00:21:22;134.83;;;72.80;;
4744;SDS011;2386;42.138;24.746;2024-01-06T00:23:47;143.20;;;72.77;;
4744;SDS011;2386;42.138;24.746;2024-01-06T00:26:13;141.37;;;76.30;;
4744;SDS011;2386;42.138;24.746;2024-01-06T00:28:38;130.17;;;71.30;;
4744;SDS011;2386;42.138;24.746;2024-01-06T00:31:04;121.77;;;66.43;;
4744;SDS011;2386;42.138;24.746;2024-01-06T00:33:31;134.43;;;64.73;;
4744;SDS011;2386;42.138;24.746;2024-01-06T00:35:56;122.17;;;64.90;;
4744;SDS011;2386;42.138;24.746;2024-01-06T00:38:21;116.57;;;62.27;;
4744;SDS011;2386;42.138;24.746;2024-01-06T00:40:47;90.27;;;47.57;;
4744;SDS011;2386;42.138;24.746;2024-01-06T00:43:12;84.97;;;45.90;;
4744;SDS011;2386;42.138;24.746;2024-01-06T00:45:38;81.63;;;44.50;;
4744;SDS011;2386;42.138;24.746;2024-01-06T00:48:03;76.03;;;41.50;;
4744;SDS011;2386;42.138;24.746;2024-01-06T00:50:29;90.40;;;43.60;;
4744;SDS011;2386;42.138;24.746;2024-01-06T00:52:55;78.43;;;43.37;;
4744;SDS011;2386;42.138;24.746;2024-01-06T00:55:21;73.63;;;40.97;;
4744;SDS011;2386;42.138;24.746;2024-01-06T00:57:47;78.67;;;40.87;;
4744;SDS011;2386;42.138;24.746;2024-01-06T01:00:13;81.43;;;41.03;;
4744;SDS011;2386;42.138;24.746;2024-01-06T01:02:38;73.70;;;38.77;;
4744;SDS011;2386;42.138;24.746;2024-01-06T01:05:04;78.10;;;38.97;;
4744;SDS011;2386;42.138;24.746;2024-01-06T01:07:30;77.00;;;38.00;;
4744;SDS011;2386;42.138;24.746;2024-01-06T01:09:55;63.00;;;35.67;;
4744;SDS011;2386;42.138;24.746;2024-01-06T01:12:21;61.93;;;33.00;;
4744;SDS011;2386;42.138;24.746;2024-01-06T01:14:48;64.10;;;31.50;;
4744;SDS011;2386;42.138;24.746;2024-01-06T01:17:13;53.83;;;29.87;;
4744;SDS011;2386;42.138;24.746;2024-01-06T01:19:38;57.90;;;31.73;;
4744;SDS011;2386;42.138;24.746;2024-01-06T01:22:04;70.57;;;31.57;;
4744;SDS011;2386;42.138;24.746;2024-01-06T01:24:30;62.60;;;31.50;;
4744;SDS011;2386;42.138;24.746;2024-01-06T01:26:55;69.00;;;34.60;;
4744;SDS011;2386;42.138;24.746;2024-01-06T01:29:20;65.70;;;33.40;;
4744;SDS011;2386;42.138;24.746;2024-01-06T01:31:46;58.03;;;32.47;;
4744;SDS011;2386;42.138;24.746;2024-01-06T01:34:12;50.77;;;29.93;;
4744;SDS011;2386;42.138;24.746;2024-01-06T01:36:37;53.20;;;28.87;;
4744;SDS011;2386;42.138;24.746;2024-01-06T01:39:03;58.13;;;30.90;;
4744;SDS011;2386;42.138;24.746;2024-01-06T01:41:28;49.93;;;29.27;;
4744;SDS011;2386;42.138;24.746;2024-01-06T01:43:53;49.87;;;30.10;;
4744;SDS011;2386;42.138;24.746;2024-01-06T01:46:26;56.10;;;29.00;;
4744;SDS011;2386;42.138;24.746;2024-01-06T01:48:53;50.60;;;28.70;;
4744;SDS011;2386;42.138;24.746;2024-01-06T01:51:20;72.73;;;30.30;;
4744;SDS011;2386;42.138;24.746;2024-01-06T01:53:46;48.63;;;29.83;;
4744;SDS011;2386;42.138;24.746;2024-01-06T01:56:12;62.93;;;31.20;;
4744;SDS011;2386;42.138;24.746;2024-01-06T01:58:37;46.93;;;27.30;;
4744;SDS011;2386;42.138;24.746;2024-01-06T02:01:03;42.90;;;25.17;;
4744;SDS011;2386;42.138;24.746;2024-01-06T02:03:30;47.17;;;24.63;;
4744;SDS011;2386;42.138;24.746;2024-01-06T02:05:55;38.60;;;23.03;;
4744;SDS011;2386;42.138;24.746;2024-01-06T02:08:21;37.93;;;22.23;;
4744;SDS011;2386;42.138;24.746;2024-01-06T02:10:48;35.40;;;21.50;;
4744;SDS011;2386;42.138;24.746;2024-01-06T02:13:14;45.30;;;21.00;;
4744;SDS011;2386;42.138;24.746;2024-01-06T02:15:39;41.20;;;20.33;;
4744;SDS011;2386;42.138;24.746;2024-01-06T02:18:05;34.90;;;19.57;;
4744;SDS011;2386;42.138;24.746;2024-01-06T02:20:31;38.50;;;19.80;;
4744;SDS011;2386;42.138;24.746;2024-01-06T02:22:56;35.57;;;19.30;;
4744;SDS011;2386;42.138;24.746;2024-01-06T02:25:23;34.70;;;19.57;;
4744;SDS011;2386;42.138;24.746;2024-01-06T02:27:49;30.57;;;17.17;;
4744;SDS011;2386;42.138;24.746;2024-01-06T02:30:14;33.10;;;19.27;;
4744;SDS011;2386;42.138;24.746;2024-01-06T02:32:40;34.03;;;19.53;;
4744;SDS011;2386;42.138;24.746;2024-01-06T02:35:05;33.57;;;18.50;;
4744;SDS011;2386;42.138;24.746;2024-01-06T02:37:31;29.63;;;18.50;;
4744;SDS011;2386;42.138;24.746;2024-01-06T02:39:57;32.57;;;18.27;;
4744;SDS011;2386;42.138;24.746;2024-01-06T02:42:22;26.97;;;17.00;;
4744;SDS011;2386;42.138;24.746;2024-01-06T02:44:49;29.03;;;16.90;;
4744;SDS011;2386;42.138;24.746;2024-01-06T02:47:14;40.00;;;17.20;;
4744;SDS011;2386;42.138;24.746;2024-01-06T02:49:39;29.43;;;17.63;;
4744;SDS011;2386;42.138;24.746;2024-01-06T02:52:05;27.47;;;16.63;;
4744;SDS011;2386;42.138;24.746;2024-01-06T02:54:30;34.73;;;16.80;;
4744;SDS011;2386;42.138;24.746;2024-01-06T02:56:56;28.93;;;16.60;;
4744;SDS011;2386;42.138;24.746;2024-01-06T02:59:21;40.47;;;17.00;;
4744;SDS011;2386;42.138;24.746;2024-01-06T03:01:46;30.43;;;17.40;;
4744;SDS011;2386;42.138;24.746;2024-01-06T03:04:12;36.30;;;17.83;;
4744;SDS011;2386;42.138;24.746;2024-01-06T03:06:37;32.40;;;18.07;;
4744;SDS011;2386;42.138;24.746;2024-01-06T03:09:02;37.80;;;19.37;;
4744;SDS011;2386;42.138;24.746;2024-01-06T03:11:28;32.00;;;18.80;;
4744;SDS011;2386;42.138;24.746;2024-01-06T03:13:53;29.23;;;17.53;;
4744;SDS011;2386;42.138;24.746;2024-01-06T03:16:18;32.80;;;17.87;;
4744;SDS011;2386;42.138;24.746;2024-01-06T03:18:44;30.57;;;18.00;;
4744;SDS011;2386;42.138;24.746;2024-01-06T03:21:18;33.97;;;17.93;;
4744;SDS011;2386;42.138;24.746;2024-01-06T03:23:44;29.80;;;17.43;;
4744;SDS011;2386;42.138;24.746;2024-01-06T03:26:10;31.33;;;17.80;;
4744;SDS011;2386;42.138;24.746;2024-01-06T03:28:35;35.80;;;19.37;;
4744;SDS011;2386;42.138;24.746;2024-01-06T03:31:00;30.63;;;17.17;;
4744;SDS011;2386;42.138;24.746;2024-01-06T03:33:26;31.77;;;16.63;;
4744;SDS011;2386;42.138;24.746;2024-01-06T03:35:51;35.40;;;17.20;;
4744;SDS011;2386;42.138;24.746;2024-01-06T03:38:17;32.73;;;17.70;;
4744;SDS011;2386;42.138;24.746;2024-01-06T03:40:42;31.37;;;18.10;;
4744;SDS011;2386;42.138;24.746;2024-01-06T03:43:07;33.30;;;18.20;;
4744;SDS011;2386;42.138;24.746;2024-01-06T03:45:33;35.17;;;18.10;;
4744;SDS011;2386;42.138;24.746;2024-01-06T03:47:58;31.40;;;17.67;;
4744;SDS011;2386;42.138;24.746;2024-01-06T03:50:23;37.50;;;17.67;;
4744;SDS011;2386;42.138;24.746;2024-01-06T03:52:49;33.17;;;19.20;;
4744;SDS011;2386;42.138;24.746;2024-01-06T03:55:14;32.93;;;17.40;;
4744;SDS011;2386;42.138;24.746;2024-01-06T03:57:41;33.10;;;18.73;;
4744;SDS011;2386;42.138;24.746;2024-01-06T04:00:06;35.17;;;19.80;;
4744;SDS011;2386;42.138;24.746;2024-01-06T04:02:33;33.27;;;19.33;;
4744;SDS011;2386;42.138;24.746;2024-01-06T04:04:58;31.13;;;18.40;;
4744;SDS011;2386;42.138;24.746;2024-01-06T04:07:24;31.10;;;18.60;;
4744;SDS011;2386;42.138;24.746;2024-01-06T04:09:49;26.73;;;17.77;;
4744;SDS011;2386;42.138;24.746;2024-01-06T04:12:15;30.17;;;17.70;;
4744;SDS011;2386;42.138;24.746;2024-01-06T04:14:40;29.70;;;18.73;;
4744;SDS011;2386;42.138;24.746;2024-01-06T04:17:06;28.30;;;16.27;;
4744;SDS011;2386;42.138;24.746;2024-01-06T04:19:31;31.33;;;15.73;;
4744;SDS011;2386;42.138;24.746;2024-01-06T04:21:57;21.83;;;14.50;;
4744;SDS011;2386;42.138;24.746;2024-01-06T04:24:22;26.47;;;15.40;;
4744;SDS011;2386;42.138;24.746;2024-01-06T04:26:47;26.37;;;15.03;;
4744;SDS011;2386;42.138;24.746;2024-01-06T04:29:13;28.30;;;14.77;;
4744;SDS011;2386;42.138;24.746;2024-01-06T04:31:39;23.00;;;13.70;;
4744;SDS011;2386;42.138;24.746;2024-01-06T04:34:05;24.27;;;16.03;;
4744;SDS011;2386;42.138;24.746;2024-01-06T04:36:31;31.50;;;16.27;;
4744;SDS011;2386;42.138;24.746;2024-01-06T04:38:56;23.00;;;14.63;;
4744;SDS011;2386;42.138;24.746;2024-01-06T04:41:21;23.93;;;15.03;;
4744;SDS011;2386;42.138;24.746;2024-01-06T04:43:47;23.97;;;15.03;;
4744;SDS011;2386;42.138;24.746;2024-01-06T04:46:12;22.50;;;13.90;;
4744;SDS011;2386;42.138;24.746;2024-01-06T04:48:39;25.10;;;15.77;;
4744;SDS011;2386;42.138;24.746;2024-01-06T04:51:05;25.87;;;14.13;;
4744;SDS011;2386;42.138;24.746;2024-01-06T04:53:34;20.10;;;13.33;;
4744;SDS011;2386;42.138;24.746;2024-01-06T04:56:00;22.77;;;13.67;;
4744;SDS011;2386;42.138;24.746;2024-01-06T04:58:26;21.53;;;13.40;;
4744;SDS011;2386;42.138;24.746;2024-01-06T05:00:51;23.00;;;13.80;;
4744;SDS011;2386;42.138;24.746;2024-01-06T05:03:17;22.60;;;13.10;;
4744;SDS011;2386;42.138;24.746;2024-01-06T05:05:43;19.90;;;12.90;;
4744;SDS011;2386;42.138;24.746;2024-01-06T05:08:08;23.57;;;13.47;;
4744;SDS011;2386;42.138;24.746;2024-01-06T05:10:34;16.30;;;11.63;;
4744;SDS011;2386;42.138;24.746;2024-01-06T05:12:59;21.40;;;13.40;;
4744;SDS011;2386;42.138;24.746;2024-01-06T05:15:25;20.00;;;12.47;;
4744;SDS011;2386;42.138;24.746;2024-01-06T05:17:50;20.20;;;11.47;;
4744;SDS011;2386;42.138;24.746;2024-01-06T05:20:15;18.30;;;11.90;;
4744;SDS011;2386;42.138;24.746;2024-01-06T05:22:41;15.57;;;11.97;;
4744;SDS011;2386;42.138;24.746;2024-01-06T05:25:06;18.87;;;11.10;;
4744;SDS011;2386;42.138;24.746;2024-01-06T05:27:32;20.33;;;11.67;;
4744;SDS011;2386;42.138;24.746;2024-01-06T05:29:57;25.23;;;11.90;;
4744;SDS011;2386;42.138;24.746;2024-01-06T05:32:23;25.43;;;12.60;;
4744;SDS011;2386;42.138;24.746;2024-01-06T05:34:48;22.70;;;12.90;;
4744;SDS011;2386;42.138;24.746;2024-01-06T05:37:14;19.30;;;11.13;;
4744;SDS011;2386;42.138;24.746;2024-01-06T05:39:39;21.53;;;11.93;;
4744;SDS011;2386;42.138;24.746;2024-01-06T05:42:05;18.70;;;11.80;;
4744;SDS011;2386;42.138;24.746;2024-01-06T05:44:34;21.40;;;12.07;;
4744;SDS011;2386;42.138;24.746;2024-01-06T05:47:01;19.30;;;11.60;;
4744;SDS011;2386;42.138;24.746;2024-01-06T05:49:26;19.00;;;12.17;;
4744;SDS011;2386;42.138;24.746;2024-01-06T05:51:52;18.80;;;12.57;;
4744;SDS011;2386;42.138;24.746;2024-01-06T05:54:17;19.00;;;13.00;;
4744;SDS011;2386;42.138;24.746;2024-01-06T05:56:42;17.00;;;11.90;;
4744;SDS011;2386;42.138;24.746;2024-01-06T05:59:08;23.97;;;13.43;;
4744;SDS011;2386;42.138;24.746;2024-01-06T06:01:33;22.00;;;12.47;;
4744;SDS011;2386;42.138;24.746;2024-01-06T06:03:58;23.43;;;12.70;;
4744;SDS011;2386;42.138;24.746;2024-01-06T06:06:24;23.03;;;13.80;;
4744;SDS011;2386;42.138;24.746;2024-01-06T06:08:49;24.23;;;13.40;;
4744;SDS011;2386;42.138;24.746;2024-01-06T06:11:15;22.70;;;14.03;;
4744;SDS011;2386;42.138;24.746;2024-01-06T06:13:40;20.70;;;13.20;;
4744;SDS011;2386;42.138;24.746;2024-01-06T06:16:06;21.33;;;14.00;;
4744;SDS011;2386;42.138;24.746;2024-01-06T06:18:34;24.93;;;12.53;;
4744;SDS011;2386;42.138;24.746;2024-01-06T06:21:00;23.27;;;13.33;;
4744;SDS011;2386;42.138;24.746;2024-01-06T06:23:26;20.10;;;13.10;;
4744;SDS011;2386;42.138;24.746;2024-01-06T06:25:52;22.60;;;13.10;;
4744;SDS011;2386;42.138;24.746;2024-01-06T06:28:18;19.70;;;13.00;;
4744;SDS011;2386;42.138;24.746;2024-01-06T06:30:43;19.73;;;13.10;;
4744;SDS011;2386;42.138;24.746;2024-01-06T06:33:08;23.57;;;15.37;;
4744;SDS011;2386;42.138;24.746;2024-01-06T06:35:34;23.27;;;15.10;;
4744;SDS011;2386;42.138;24.746;2024-01-06T06:37:59;26.10;;;13.87;;
4744;SDS011;2386;42.138;24.746;2024-01-06T06:40:25;28.87;;;14.83;;
4744;SDS011;2386;42.138;24.746;2024-01-06T06:42:50;23.20;;;13.70;;
4744;SDS011;2386;42.138;24.746;2024-01-06T06:45:15;23.90;;;14.00;;
4744;SDS011;2386;42.138;24.746;2024-01-06T06:47:41;21.63;;;14.03;;
4744;SDS011;2386;42.138;24.746;2024-01-06T06:50:06;33.83;;;14.30;;
4744;SDS011;2386;42.138;24.746;2024-01-06T06:52:32;21.40;;;13.10;;
4744;SDS011;2386;42.138;24.746;2024-01-06T06:54:58;26.20;;;12.80;;
4744;SDS011;2386;42.138;24.746;2024-01-06T06:57:23;23.47;;;14.53;;
4744;SDS011;2386;42.138;24.746;2024-01-06T06:59:49;27.87;;;15.77;;
4744;SDS011;2386;42.138;24.746;2024-01-06T07:02:14;29.67;;;15.17;;
4744;SDS011;2386;42.138;24.746;2024-01-06T07:04:40;21.07;;;12.80;;
4744;SDS011;2386;42.138;24.746;2024-01-06T07:07:05;28.67;;;14.47;;
4744;SDS011;2386;42.138;24.746;2024-01-06T07:09:31;22.50;;;14.50;;
4744;SDS011;2386;42.138;24.746;2024-01-06T07:11:56;25.60;;;14.67;;
4744;SDS011;2386;42.138;24.746;2024-01-06T07:14:22;30.13;;;16.27;;
4744;SDS011;2386;42.138;24.746;2024-01-06T07:16:47;32.43;;;15.70;;
4744;SDS011;2386;42.138;24.746;2024-01-06T07:19:13;38.53;;;17.67;;
4744;SDS011;2386;42.138;24.746;2024-01-06T07:21:38;30.70;;;18.13;;
4744;SDS011;2386;42.138;24.746;2024-01-06T07:24:04;32.27;;;17.40;;
4744;SDS011;2386;42.138;24.746;2024-01-06T07:26:29;36.20;;;17.67;;
4744;SDS011;2386;42.138;24.746;2024-01-06T07:28:55;32.87;;;16.30;;
4744;SDS011;2386;42.138;24.746;2024-01-06T07:31:20;25.27;;;15.77;;
4744;SDS011;2386;42.138;24.746;2024-01-06T07:33:45;28.93;;;16.70;;
4744;SDS011;2386;42.138;24.746;2024-01-06T07:36:11;31.23;;;16.70;;
4744;SDS011;2386;42.138;24.746;2024-01-06T07:38:36;35.87;;;16.03;;
4744;SDS011;2386;42.138;24.746;2024-01-06T07:41:02;30.83;;;15.70;;
4744;SDS011;2386;42.138;24.746;2024-01-06T07:43:29;27.13;;;16.33;;
4744;SDS011;2386;42.138;24.746;2024-01-06T07:45:55;27.20;;;15.70;;
4744;SDS011;2386;42.138;24.746;2024-01-06T07:48:20;25.33;;;16.40;;
4744;SDS011;2386;42.138;24.746;2024-01-06T07:50:46;35.57;;;18.17;;
4744;SDS011;2386;42.138;24.746;2024-01-06T07:53:11;33.30;;;18.80;;
4744;SDS011;2386;42.138;24.746;2024-01-06T07:55:38;35.13;;;19.03;;
4744;SDS011;2386;42.138;24.746;2024-01-06T07:58:04;28.57;;;17.70;;
4744;SDS011;2386;42.138;24.746;2024-01-06T08:00:29;40.20;;;17.47;;
4744;SDS011;2386;42.138;24.746;2024-01-06T08:02:55;36.10;;;19.20;;
4744;SDS011;2386;42.138;24.746;2024-01-06T08:05:21;37.10;;;18.60;;
4744;SDS011;2386;42.138;24.746;2024-01-06T08:07:46;42.37;;;22.63;;
4744;SDS011;2386;42.138;24.746;2024-01-06T08:10:11;35.47;;;21.63;;
4744;SDS011;2386;42.138;24.746;2024-01-06T08:12:37;40.10;;;22.07;;
4744;SDS011;2386;42.138;24.746;2024-01-06T08:15:03;43.53;;;21.30;;
4744;SDS011;2386;42.138;24.746;2024-01-06T08:17:29;35.03;;;21.47;;
4744;SDS011;2386;42.138;24.746;2024-01-06T08:19:55;44.07;;;23.10;;
4744;SDS011;2386;42.138;24.746;2024-01-06T08:22:20;43.43;;;23.50;;
4744;SDS011;2386;42.138;24.746;2024-01-06T08:24:45;37.87;;;22.63;;
4744;SDS011;2386;42.138;24.746;2024-01-06T08:27:12;42.63;;;24.10;;
4744;SDS011;2386;42.138;24.746;2024-01-06T08:29:37;48.53;;;22.70;;
4744;SDS011;2386;42.138;24.746;2024-01-06T08:32:03;46.10;;;20.60;;
4744;SDS011;2386;42.138;24.746;2024-01-06T08:34:28;36.80;;;21.67;;
4744;SDS011;2386;42.138;24.746;2024-01-06T08:36:54;36.83;;;21.07;;
4744;SDS011;2386;42.138;24.746;2024-01-06T08:39:19;35.10;;;19.37;;
4744;SDS011;2386;42.138;24.746;2024-01-06T08:41:44;32.10;;;19.97;;
4744;SDS011;2386;42.138;24.746;2024-01-06T08:44:10;30.40;;;18.43;;
4744;SDS011;2386;42.138;24.746;2024-01-06T08:46:35;36.90;;;20.23;;
4744;SDS011;2386;42.138;24.746;2024-01-06T08:49:01;38.07;;;19.57;;
4744;SDS011;2386;42.138;24.746;2024-01-06T08:51:26;36.30;;;19.13;;
4744;SDS011;2386;42.138;24.746;2024-01-06T08:53:53;33.77;;;20.27;;
4744;SDS011;2386;42.138;24.746;2024-01-06T08:56:18;37.67;;;21.17;;
4744;SDS011;2386;42.138;24.746;2024-01-06T08:58:44;33.57;;;19.80;;
4744;SDS011;2386;42.138;24.746;2024-01-06T09:01:09;30.60;;;19.93;;
4744;SDS011;2386;42.138;24.746;2024-01-06T09:03:35;34.13;;;20.60;;
4744;SDS011;2386;42.138;24.746;2024-01-06T09:06:01;30.50;;;19.03;;
4744;SDS011;2386;42.138;24.746;2024-01-06T09:08:26;31.07;;;19.90;;
4744;SDS011;2386;42.138;24.746;2024-01-06T09:10:52;32.87;;;19.60;;
4744;SDS011;2386;42.138;24.746;2024-01-06T09:13:21;39.23;;;20.10;;
4744;SDS011;2386;42.138;24.746;2024-01-06T09:15:48;40.97;;;20.40;;
4744;SDS011;2386;42.138;24.746;2024-01-06T09:18:13;32.27;;;19.70;;
4744;SDS011;2386;42.138;24.746;2024-01-06T09:20:40;38.43;;;21.60;;
4744;SDS011;2386;42.138;24.746;2024-01-06T09:23:05;30.27;;;20.23;;
4744;SDS011;2386;42.138;24.746;2024-01-06T09:25:31;32.63;;;21.70;;
4744;SDS011;2386;42.138;24.746;2024-01-06T09:27:56;36.67;;;20.27;;
4744;SDS011;2386;42.138;24.746;2024-01-06T09:30:23;36.97;;;21.57;;
4744;SDS011;2386;42.138;24.746;2024-01-06T09:32:50;28.13;;;19.50;;
4744;SDS011;2386;42.138;24.746;2024-01-06T09:35:15;33.40;;;21.20;;
4744;SDS011;2386;42.138;24.746;2024-01-06T09:37:40;36.83;;;21.17;;
4744;SDS011;2386;42.138;24.746;2024-01-06T09:40:06;31.50;;;20.23;;
4744;SDS011;2386;42.138;24.746;2024-01-06T09:42:38;35.60;;;22.17;;
4744;SDS011;2386;42.138;24.746;2024-01-06T09:45:04;41.33;;;22.13;;
4744;SDS011;2386;42.138;24.746;2024-01-06T09:47:29;34.33;;;22.57;;
4744;SDS011;2386;42.138;24.746;2024-01-06T09:49:59;44.93;;;22.30;;
4744;SDS011;2386;42.138;24.746;2024-01-06T09:52:26;41.37;;;23.87;;
4744;SDS011;2386;42.138;24.746;2024-01-06T09:54:54;49.17;;;24.47;;
4744;SDS011;2386;42.138;24.746;2024-01-06T09:57:20;57.23;;;25.33;;
4744;SDS011;2386;42.138;24.746;2024-01-06T09:59:46;46.23;;;25.97;;
4744;SDS011;2386;42.138;24.746;2024-01-06T10:02:15;46.63;;;25.30;;
4744;SDS011;2386;42.138;24.746;2024-01-06T10:04:42;46.23;;;25.07;;
4744;SDS011;2386;42.138;24.746;2024-01-06T10:07:08;42.87;;;24.60;;
4744;SDS011;2386;42.138;24.746;2024-01-06T10:09:37;60.87;;;24.50;;
4744;SDS011;2386;42.138;24.746;2024-01-06T10:12:02;43.77;;;24.30;;
4744;SDS011;2386;42.138;24.746;2024-01-06T10:14:28;49.40;;;26.50;;
4744;SDS011;2386;42.138;24.746;2024-01-06T10:16:53;53.23;;;27.57;;
4744;SDS011;2386;42.138;24.746;2024-01-06T10:19:20;47.77;;;27.20;;
4744;SDS011;2386;42.138;24.746;2024-01-06T10:21:46;50.60;;;26.43;;
4744;SDS011;2386;42.138;24.746;2024-01-06T10:24:11;44.33;;;26.60;;
4744;SDS011;2386;42.138;24.746;2024-01-06T10:26:37;45.27;;;26.80;;
4744;SDS011;2386;42.138;24.746;2024-01-06T10:29:03;46.70;;;25.90;;
4744;SDS011;2386;42.138;24.746;2024-01-06T10:31:29;51.60;;;28.73;;
4744;SDS011;2386;42.138;24.746;2024-01-06T10:33:55;49.20;;;27.43;;
4744;SDS011;2386;42.138;24.746;2024-01-06T10:36:21;47.93;;;28.90;;
4744;SDS011;2386;42.138;24.746;2024-01-06T10:38:48;50.83;;;27.43;;
4744;SDS011;2386;42.138;24.746;2024-01-06T10:41:15;49.37;;;27.57;;
4744;SDS011;2386;42.138;24.746;2024-01-06T10:43:41;50.73;;;26.67;;
4744;SDS011;2386;42.138;24.746;2024-01-06T10:46:08;40.60;;;24.87;;
4744;SDS011;2386;42.138;24.746;2024-01-06T10:48:39;54.30;;;28.10;;
4744;SDS011;2386;42.138;24.746;2024-01-06T10:51:08;50.27;;;27.47;;
4744;SDS011;2386;42.138;24.746;2024-01-06T10:53:37;52.40;;;27.50;;
4744;SDS011;2386;42.138;24.746;2024-01-06T10:56:04;47.37;;;28.43;;
4744;SDS011;2386;42.138;24.746;2024-01-06T10:58:32;56.73;;;27.60;;
4744;SDS011;2386;42.138;24.746;2024-01-06T11:01:02;54.13;;;27.53;;
4744;SDS011;2386;42.138;24.746;2024-01-06T11:03:28;46.13;;;26.23;;
4744;SDS011;2386;42.138;24.746;2024-01-06T11:05:54;55.83;;;25.23;;
4744;SDS011;2386;42.138;24.746;2024-01-06T11:08:19;46.23;;;23.43;;
4744;SDS011;2386;42.138;24.746;2024-01-06T11:10:47;46.33;;;24.87;;
4744;SDS011;2386;42.138;24.746;2024-01-06T11:13:13;41.60;;;21.40;;
4744;SDS011;2386;42.138;24.746;2024-01-06T11:15:46;40.53;;;20.70;;
4744;SDS011;2386;42.138;24.746;2024-01-06T11:21:20;49.77;;;21.40;;
4744;SDS011;2386;42.138;24.746;2024-01-06T11:26:45;46.20;;;18.93;;
4744;SDS011;2386;42.138;24.746;2024-01-06T11:29:15;33.17;;;18.97;;
4744;SDS011;2386;42.138;24.746;2024-01-06T11:31:41;43.63;;;18.70;;
4744;SDS011;2386;42.138;24.746;2024-01-06T11:34:14;33.63;;;18.07;;
4744;SDS011;2386;42.138;24.746;2024-01-06T11:36:44;26.90;;;16.63;;
4744;SDS011;2386;42.138;24.746;2024-01-06T11:42:15;32.53;;;17.10;;
4744;SDS011;2386;42.138;24.746;2024-01-06T11:44:42;26.40;;;16.00;;
4744;SDS011;2386;42.138;24.746;2024-01-06T11:47:10;25.23;;;16.13;;
4744;SDS011;2386;42.138;24.746;2024-01-06T11:49:37;31.17;;;18.13;;
4744;SDS011;2386;42.138;24.746;2024-01-06T11:52:02;31.87;;;16.50;;
4744;SDS011;2386;42.138;24.746;2024-01-06T11:54:28;26.13;;;15.37;;
4744;SDS011;2386;42.138;24.746;2024-01-06T11:56:54;26.07;;;16.47;;
4744;SDS011;2386;42.138;24.746;2024-01-06T11:59:21;27.20;;;16.10;;
4744;SDS011;2386;42.138;24.746;2024-01-06T12:01:46;31.10;;;17.20;;
4744;SDS011;2386;42.138;24.746;2024-01-06T12:04:15;26.13;;;17.23;;
4744;SDS011;2386;42.138;24.746;2024-01-06T12:06:41;32.27;;;18.00;;
4744;SDS011;2386;42.138;24.746;2024-01-06T12:09:07;26.77;;;15.83;;
4744;SDS011;2386;42.138;24.746;2024-01-06T12:11:35;26.13;;;16.03;;
4744;SDS011;2386;42.138;24.746;2024-01-06T12:14:02;26.37;;;16.03;;
4744;SDS011;2386;42.138;24.746;2024-01-06T12:16:27;24.93;;;15.10;;
4744;SDS011;2386;42.138;24.746;2024-01-06T12:18:54;25.80;;;14.77;;
4744;SDS011;2386;42.138;24.746;2024-01-06T12:21:24;38.33;;;16.37;;
4744;SDS011;2386;42.138;24.746;2024-01-06T12:23:50;30.83;;;19.10;;
4744;SDS011;2386;42.138;24.746;2024-01-06T12:26:18;28.90;;;16.33;;
4744;SDS011;2386;42.138;24.746;2024-01-06T12:28:45;32.80;;;17.13;;
4744;SDS011;2386;42.138;24.746;2024-01-06T12:31:11;49.60;;;17.20;;
4744;SDS011;2386;42.138;24.746;2024-01-06T12:33:37;38.87;;;17.70;;
4744;SDS011;2386;42.138;24.746;2024-01-06T12:36:06;36.90;;;16.50;;
4744;SDS011;2386;42.138;24.746;2024-01-06T12:38:32;53.03;;;33.03;;
4744;SDS011;2386;42.138;24.746;2024-01-06T12:40:58;71.80;;;38.77;;
4744;SDS011;2386;42.138;24.746;2024-01-06T12:43:25;47.93;;;20.80;;
4744;SDS011;2386;42.138;24.746;2024-01-06T12:45:50;31.23;;;17.30;;
4744;SDS011;2386;42.138;24.746;2024-01-06T12:48:17;24.43;;;15.50;;
4744;SDS011;2386;42.138;24.746;2024-01-06T12:50:43;29.47;;;15.67;;
4744;SDS011;2386;42.138;24.746;2024-01-06T12:53:08;38.50;;;17.10;;
4744;SDS011;2386;42.138;24.746;2024-01-06T12:55:34;27.60;;;16.53;;
4744;SDS011;2386;42.138;24.746;2024-01-06T12:58:00;29.83;;;15.47;;
4744;SDS011;2386;42.138;24.746;2024-01-06T13:00:28;28.67;;;15.13;;
4744;SDS011;2386;42.138;24.746;2024-01-06T13:02:54;25.03;;;14.53;;
4744;SDS011;2386;42.138;24.746;2024-01-06T13:05:19;17.00;;;12.50;;
4744;SDS011;2386;42.138;24.746;2024-01-06T13:07:45;23.43;;;14.40;;
4744;SDS011;2386;42.138;24.746;2024-01-06T13:10:11;23.70;;;13.77;;
4744;SDS011;2386;42.138;24.746;2024-01-06T13:12:37;25.67;;;13.80;;
4744;SDS011;2386;42.138;24.746;2024-01-06T13:15:02;22.90;;;14.10;;
4744;SDS011;2386;42.138;24.746;2024-01-06T13:17:28;24.83;;;15.07;;
4744;SDS011;2386;42.138;24.746;2024-01-06T13:19:53;23.87;;;14.30;;
4744;SDS011;2386;42.138;24.746;2024-01-06T13:22:19;21.50;;;14.40;;
4744;SDS011;2386;42.138;24.746;2024-01-06T13:24:46;28.40;;;15.37;;
4744;SDS011;2386;42.138;24.746;2024-01-06T13:27:12;20.23;;;14.10;;
4744;SDS011;2386;42.138;24.746;2024-01-06T13:29:37;25.30;;;14.80;;
4744;SDS011;2386;42.138;24.746;2024-01-06T13:32:03;26.93;;;14.30;;
4744;SDS011;2386;42.138;24.746;2024-01-06T13:34:30;22.73;;;12.90;;
4744;SDS011;2386;42.138;24.746;2024-01-06T13:36:56;22.67;;;13.40;;
4744;SDS011;2386;42.138;24.746;2024-01-06T13:39:22;19.07;;;12.50;;
4744;SDS011;2386;42.138;24.746;2024-01-06T13:41:48;18.03;;;12.00;;
4744;SDS011;2386;42.138;24.746;2024-01-06T13:44:14;18.53;;;12.87;;
4744;SDS011;2386;42.138;24.746;2024-01-06T13:46:40;23.13;;;11.47;;
4744;SDS011;2386;42.138;24.746;2024-01-06T13:49:09;22.03;;;11.73;;
4744;SDS011;2386;42.138;24.746;2024-01-06T13:51:41;23.30;;;11.53;;
4744;SDS011;2386;42.138;24.746;2024-01-06T13:54:06;22.30;;;11.90;;
4744;SDS011;2386;42.138;24.746;2024-01-06T13:56:32;19.93;;;12.80;;
4744;SDS011;2386;42.138;24.746;2024-01-06T13:58:58;22.30;;;13.07;;
4744;SDS011;2386;42.138;24.746;2024-01-06T14:01:24;25.37;;;14.90;;
4744;SDS011;2386;42.138;24.746;2024-01-06T14:03:50;19.63;;;13.10;;
4744;SDS011;2386;42.138;24.746;2024-01-06T14:06:15;20.57;;;12.90;;
4744;SDS011;2386;42.138;24.746;2024-01-06T14:08:43;35.73;;;14.20;;
4744;SDS011;2386;42.138;24.746;2024-01-06T14:11:08;20.63;;;12.70;;
4744;SDS011;2386;42.138;24.746;2024-01-06T14:13:34;15.20;;;10.23;;
4744;SDS011;2386;42.138;24.746;2024-01-06T14:15:59;14.50;;;10.60;;
4744;SDS011;2386;42.138;24.746;2024-01-06T14:18:25;17.33;;;11.40;;
4744;SDS011;2386;42.138;24.746;2024-01-06T14:20:52;15.10;;;10.03;;
4744;SDS011;2386;42.138;24.746;2024-01-06T14:23:20;15.50;;;9.80;;
4744;SDS011;2386;42.138;24.746;2024-01-06T14:25:46;18.87;;;10.37;;
4744;SDS011;2386;42.138;24.746;2024-01-06T14:28:11;14.70;;;10.27;;
4744;SDS011;2386;42.138;24.746;2024-01-06T14:30:37;20.80;;;10.73;;
4744;SDS011;2386;42.138;24.746;2024-01-06T14:33:02;16.70;;;10.27;;
4744;SDS011;2386;42.138;24.746;2024-01-06T14:35:27;15.20;;;9.77;;